sensor_id;sensor_type;location;lat;lon;timestamp;temperature;humidity
9151;DHT22;4610;50.006;7.490;2022-11-15T00:01:57;9.80;99.90
9151;DHT22;4610;50.006;7.490;2022-11-15T00:04:26;9.80;99.90
9151;DHT22;4610;50.006;7.490;2022-11-15T00:06:52;9.70;99.90
9151;DHT22;4610;50.006;7.490;2022-11-15T00:09:19;9.80;99.90
9151;DHT22;4610;50.006;7.490;2022-11-15T00:11:46;9.80;99.90
9151;DHT22;4610;50.006;7.490;2022-11-15T00:14:13;9.80;99.90
9151;DHT22;4610;50.006;7.490;2022-11-15T00:16:39;9.80;99.90
9151;DHT22;4610;50.006;7.490;2022-11-15T00:19:06;9.80;99.90
9151;DHT22;4610;50.006;7.490;2022-11-15T00:21:35;9.80;99.90
9151;DHT22;4610;50.006;7.490;2022-11-15T00:24:01;9.80;99.90
9151;DHT22;4610;50.006;7.490;2022-11-15T00:26:28;9.80;99.90
9151;DHT22;4610;50.006;7.490;2022-11-15T00:28:55;9.80;99.90
9151;DHT22;4610;50.006;7.490;2022-11-15T00:31:22;9.80;99.90
9151;DHT22;4610;50.006;7.490;2022-11-15T00:33:48;9.80;99.90
9151;DHT22;4610;50.006;7.490;2022-11-15T00:36:15;9.80;99.90
9151;DHT22;4610;50.006;7.490;2022-11-15T00:38:43;9.80;99.90
9151;DHT22;4610;50.006;7.490;2022-11-15T00:41:10;9.80;99.90
9151;DHT22;4610;50.006;7.490;2022-11-15T00:43:37;9.70;99.90
9151;DHT22;4610;50.006;7.490;2022-11-15T00:46:05;9.70;99.90
9151;DHT22;4610;50.006;7.490;2022-11-15T00:48:33;9.70;99.90
9151;DHT22;4610;50.006;7.490;2022-11-15T00:51:00;9.70;99.90
9151;DHT22;4610;50.006;7.490;2022-11-15T00:53:27;9.80;99.90
9151;DHT22;4610;50.006;7.490;2022-11-15T00:55:55;9.80;99.90
9151;DHT22;4610;50.006;7.490;2022-11-15T00:58:22;9.90;99.90
9151;DHT22;4610;50.006;7.490;2022-11-15T01:00:48;10.00;99.90
9151;DHT22;4610;50.006;7.490;2022-11-15T01:03:15;10.10;99.90
9151;DHT22;4610;50.006;7.490;2022-11-15T01:05:42;10.10;99.90
9151;DHT22;4610;50.006;7.490;2022-11-15T01:08:12;10.10;99.90
9151;DHT22;4610;50.006;7.490;2022-11-15T01:10:39;10.10;99.90
9151;DHT22;4610;50.006;7.490;2022-11-15T01:13:08;10.20;99.90
9151;DHT22;4610;50.006;7.490;2022-11-15T01:15:39;10.20;99.90
9151;DHT22;4610;50.006;7.490;2022-11-15T01:18:06;10.20;99.90
9151;DHT22;4610;50.006;7.490;2022-11-15T01:20:33;10.20;99.90
9151;DHT22;4610;50.006;7.490;2022-11-15T01:22:59;10.20;99.90
9151;DHT22;4610;50.006;7.490;2022-11-15T01:25:26;10.20;99.90
9151;DHT22;4610;50.006;7.490;2022-11-15T01:27:53;10.20;99.90
9151;DHT22;4610;50.006;7.490;2022-11-15T01:30:21;10.20;99.90
9151;DHT22;4610;50.006;7.490;2022-11-15T01:32:48;10.20;99.90
9151;DHT22;4610;50.006;7.490;2022-11-15T01:35:15;10.20;99.90
9151;DHT22;4610;50.006;7.490;2022-11-15T01:37:42;10.20;99.90
9151;DHT22;4610;50.006;7.490;2022-11-15T01:40:09;10.20;99.90
9151;DHT22;4610;50.006;7.490;2022-11-15T01:42:36;10.20;99.90
9151;DHT22;4610;50.006;7.490;2022-11-15T01:45:04;10.30;99.90
9151;DHT22;4610;50.006;7.490;2022-11-15T01:47:35;10.30;99.90
9151;DHT22;4610;50.006;7.490;2022-11-15T01:50:04;10.30;99.90
9151;DHT22;4610;50.006;7.490;2022-11-15T01:52:33;10.30;99.90
9151;DHT22;4610;50.006;7.490;2022-11-15T01:55:04;10.30;99.90
9151;DHT22;4610;50.006;7.490;2022-11-15T01:57:32;10.30;99.90
9151;DHT22;4610;50.006;7.490;2022-11-15T02:00:00;10.30;99.90
9151;DHT22;4610;50.006;7.490;2022-11-15T02:02:28;10.30;99.90
9151;DHT22;4610;50.006;7.490;2022-11-15T02:04:56;10.30;99.90
9151;DHT22;4610;50.006;7.490;2022-11-15T02:07:23;10.20;99.90
9151;DHT22;4610;50.006;7.490;2022-11-15T02:09:50;10.20;99.90
9151;DHT22;4610;50.006;7.490;2022-11-15T02:12:19;10.30;99.90
9151;DHT22;4610;50.006;7.490;2022-11-15T02:14:49;10.30;99.90
9151;DHT22;4610;50.006;7.490;2022-11-15T02:17:31;10.40;99.90
9151;DHT22;4610;50.006;7.490;2022-11-15T02:23:19;10.40;99.90
9151;DHT22;4610;50.006;7.490;2022-11-15T02:25:55;10.40;99.90
9151;DHT22;4610;50.006;7.490;2022-11-15T02:28:48;10.40;99.90
9151;DHT22;4610;50.006;7.490;2022-11-15T02:31:24;10.40;99.90
9151;DHT22;4610;50.006;7.490;2022-11-15T02:34:01;10.40;99.90
9151;DHT22;4610;50.006;7.490;2022-11-15T02:36:36;10.40;99.90
9151;DHT22;4610;50.006;7.490;2022-11-15T02:39:09;10.40;99.90
9151;DHT22;4610;50.006;7.490;2022-11-15T02:41:41;10.40;99.90
9151;DHT22;4610;50.006;7.490;2022-11-15T02:44:17;10.40;99.90
9151;DHT22;4610;50.006;7.490;2022-11-15T02:46:50;10.40;99.90
9151;DHT22;4610;50.006;7.490;2022-11-15T02:49:35;10.40;99.90
9151;DHT22;4610;50.006;7.490;2022-11-15T02:52:03;10.40;99.90
9151;DHT22;4610;50.006;7.490;2022-11-15T02:54:32;10.40;99.90
9151;DHT22;4610;50.006;7.490;2022-11-15T02:57:01;10.40;99.90
9151;DHT22;4610;50.006;7.490;2022-11-15T02:59:59;10.40;99.90
9151;DHT22;4610;50.006;7.490;2022-11-15T03:02:41;10.40;99.90
9151;DHT22;4610;50.006;7.490;2022-11-15T03:05:15;10.40;99.90
9151;DHT22;4610;50.006;7.490;2022-11-15T03:07:49;10.40;99.90
9151;DHT22;4610;50.006;7.490;2022-11-15T03:10:21;10.10;99.90
9151;DHT22;4610;50.006;7.490;2022-11-15T03:12:54;10.20;99.90
9151;DHT22;4610;50.006;7.490;2022-11-15T03:15:23;10.20;99.90
9151;DHT22;4610;50.006;7.490;2022-11-15T03:17:58;10.10;99.90
9151;DHT22;4610;50.006;7.490;2022-11-15T03:20:27;9.80;99.90
9151;DHT22;4610;50.006;7.490;2022-11-15T03:22:58;10.00;99.90
9151;DHT22;4610;50.006;7.490;2022-11-15T03:25:27;9.80;99.90
9151;DHT22;4610;50.006;7.490;2022-11-15T03:27:57;9.70;99.90
9151;DHT22;4610;50.006;7.490;2022-11-15T03:30:25;9.90;99.90
9151;DHT22;4610;50.006;7.490;2022-11-15T03:32:56;9.60;99.90
9151;DHT22;4610;50.006;7.490;2022-11-15T03:35:25;9.70;99.90
9151;DHT22;4610;50.006;7.490;2022-11-15T03:37:56;9.60;99.90
9151;DHT22;4610;50.006;7.490;2022-11-15T03:40:29;9.70;99.90
9151;DHT22;4610;50.006;7.490;2022-11-15T03:43:03;9.50;99.90
9151;DHT22;4610;50.006;7.490;2022-11-15T03:45:35;9.40;99.90
9151;DHT22;4610;50.006;7.490;2022-11-15T03:48:09;9.40;99.90
9151;DHT22;4610;50.006;7.490;2022-11-15T03:50:37;9.30;99.90
9151;DHT22;4610;50.006;7.490;2022-11-15T03:53:04;9.30;99.90
9151;DHT22;4610;50.006;7.490;2022-11-15T03:55:32;9.30;99.90
9151;DHT22;4610;50.006;7.490;2022-11-15T03:58:00;9.30;99.90
9151;DHT22;4610;50.006;7.490;2022-11-15T04:00:27;8.40;99.90
9151;DHT22;4610;50.006;7.490;2022-11-15T04:02:54;9.00;99.90
9151;DHT22;4610;50.006;7.490;2022-11-15T04:05:22;9.00;99.90
9151;DHT22;4610;50.006;7.490;2022-11-15T04:07:49;9.10;99.90
9151;DHT22;4610;50.006;7.490;2022-11-15T04:10:16;9.30;99.90
9151;DHT22;4610;50.006;7.490;2022-11-15T04:12:44;9.10;99.90
9151;DHT22;4610;50.006;7.490;2022-11-15T04:15:17;9.10;99.90
9151;DHT22;4610;50.006;7.490;2022-11-15T04:17:45;9.10;99.90
9151;DHT22;4610;50.006;7.490;2022-11-15T04:20:14;9.20;99.90
9151;DHT22;4610;50.006;7.490;2022-11-15T04:23:01;9.20;99.90
9151;DHT22;4610;50.006;7.490;2022-11-15T04:25:48;9.20;99.90
9151;DHT22;4610;50.006;7.490;2022-11-15T04:28:16;9.20;99.90
9151;DHT22;4610;50.006;7.490;2022-11-15T04:30:43;9.30;99.90
9151;DHT22;4610;50.006;7.490;2022-11-15T04:33:09;9.30;99.90
9151;DHT22;4610;50.006;7.490;2022-11-15T04:35:36;9.30;99.90
9151;DHT22;4610;50.006;7.490;2022-11-15T04:38:07;9.30;99.90
9151;DHT22;4610;50.006;7.490;2022-11-15T04:40:34;9.30;99.90
9151;DHT22;4610;50.006;7.490;2022-11-15T04:43:01;10.50;99.90
9151;DHT22;4610;50.006;7.490;2022-11-15T04:45:28;9.10;99.90
9151;DHT22;4610;50.006;7.490;2022-11-15T04:47:55;9.00;99.90
9151;DHT22;4610;50.006;7.490;2022-11-15T04:50:21;8.50;99.90
9151;DHT22;4610;50.006;7.490;2022-11-15T04:52:52;8.80;99.90
9151;DHT22;4610;50.006;7.490;2022-11-15T04:55:20;8.80;99.90
9151;DHT22;4610;50.006;7.490;2022-11-15T04:57:47;8.80;99.90
9151;DHT22;4610;50.006;7.490;2022-11-15T05:00:16;8.80;99.90
9151;DHT22;4610;50.006;7.490;2022-11-15T05:02:43;8.80;99.90
9151;DHT22;4610;50.006;7.490;2022-11-15T05:05:24;8.90;99.90
9151;DHT22;4610;50.006;7.490;2022-11-15T05:07:51;9.20;99.90
9151;DHT22;4610;50.006;7.490;2022-11-15T05:10:19;9.70;99.90
9151;DHT22;4610;50.006;7.490;2022-11-15T05:12:46;9.50;99.90
9151;DHT22;4610;50.006;7.490;2022-11-15T05:15:13;9.60;99.90
9151;DHT22;4610;50.006;7.490;2022-11-15T05:17:40;9.80;99.90
9151;DHT22;4610;50.006;7.490;2022-11-15T05:20:08;9.80;99.90
9151;DHT22;4610;50.006;7.490;2022-11-15T05:22:35;9.70;99.90
9151;DHT22;4610;50.006;7.490;2022-11-15T05:25:02;9.70;99.90
9151;DHT22;4610;50.006;7.490;2022-11-15T05:27:30;9.50;99.90
9151;DHT22;4610;50.006;7.490;2022-11-15T05:29:57;9.40;99.90
9151;DHT22;4610;50.006;7.490;2022-11-15T05:32:24;9.30;99.90
9151;DHT22;4610;50.006;7.490;2022-11-15T05:34:51;9.30;99.90
9151;DHT22;4610;50.006;7.490;2022-11-15T05:37:18;9.30;99.90
9151;DHT22;4610;50.006;7.490;2022-11-15T05:39:45;9.30;99.90
9151;DHT22;4610;50.006;7.490;2022-11-15T05:42:13;9.30;99.90
9151;DHT22;4610;50.006;7.490;2022-11-15T05:44:43;9.40;99.90
9151;DHT22;4610;50.006;7.490;2022-11-15T05:47:13;9.40;99.90
9151;DHT22;4610;50.006;7.490;2022-11-15T05:49:43;9.50;99.90
9151;DHT22;4610;50.006;7.490;2022-11-15T05:52:13;9.50;99.90
9151;DHT22;4610;50.006;7.490;2022-11-15T05:54:41;9.50;99.90
9151;DHT22;4610;50.006;7.490;2022-11-15T05:57:09;9.60;99.90
9151;DHT22;4610;50.006;7.490;2022-11-15T05:59:36;9.60;99.90
9151;DHT22;4610;50.006;7.490;2022-11-15T06:02:04;9.60;99.90
9151;DHT22;4610;50.006;7.490;2022-11-15T06:04:31;9.70;99.90
9151;DHT22;4610;50.006;7.490;2022-11-15T06:06:58;9.60;99.90
9151;DHT22;4610;50.006;7.490;2022-11-15T06:09:25;9.70;99.90
9151;DHT22;4610;50.006;7.490;2022-11-15T06:11:52;9.70;99.90
9151;DHT22;4610;50.006;7.490;2022-11-15T06:14:19;9.60;99.90
9151;DHT22;4610;50.006;7.490;2022-11-15T06:16:46;9.70;99.90
9151;DHT22;4610;50.006;7.490;2022-11-15T06:19:14;9.70;99.90
9151;DHT22;4610;50.006;7.490;2022-11-15T06:21:41;9.70;99.90
9151;DHT22;4610;50.006;7.490;2022-11-15T06:24:08;9.70;99.90
9151;DHT22;4610;50.006;7.490;2022-11-15T06:26:34;9.70;99.90
9151;DHT22;4610;50.006;7.490;2022-11-15T06:29:02;9.70;99.90
9151;DHT22;4610;50.006;7.490;2022-11-15T06:31:29;9.70;99.90
9151;DHT22;4610;50.006;7.490;2022-11-15T06:33:56;9.70;99.90
9151;DHT22;4610;50.006;7.490;2022-11-15T06:36:24;9.70;99.90
9151;DHT22;4610;50.006;7.490;2022-11-15T06:38:51;9.70;99.90
9151;DHT22;4610;50.006;7.490;2022-11-15T06:41:18;9.70;99.90
9151;DHT22;4610;50.006;7.490;2022-11-15T06:43:46;9.70;99.90
9151;DHT22;4610;50.006;7.490;2022-11-15T06:46:13;9.80;99.90
9151;DHT22;4610;50.006;7.490;2022-11-15T06:48:40;9.80;99.90
9151;DHT22;4610;50.006;7.490;2022-11-15T06:51:06;9.70;99.90
9151;DHT22;4610;50.006;7.490;2022-11-15T06:53:35;9.70;99.90
9151;DHT22;4610;50.006;7.490;2022-11-15T06:56:04;9.70;99.90
9151;DHT22;4610;50.006;7.490;2022-11-15T06:58:32;9.80;99.90
9151;DHT22;4610;50.006;7.490;2022-11-15T07:01:00;9.80;99.90
9151;DHT22;4610;50.006;7.490;2022-11-15T07:03:27;9.80;99.90
9151;DHT22;4610;50.006;7.490;2022-11-15T07:05:56;9.80;99.90
9151;DHT22;4610;50.006;7.490;2022-11-15T07:08:23;9.80;99.90
9151;DHT22;4610;50.006;7.490;2022-11-15T07:10:54;9.80;99.90
9151;DHT22;4610;50.006;7.490;2022-11-15T07:13:24;10.10;99.90
9151;DHT22;4610;50.006;7.490;2022-11-15T07:15:51;10.20;99.90
9151;DHT22;4610;50.006;7.490;2022-11-15T07:18:18;10.10;99.90
9151;DHT22;4610;50.006;7.490;2022-11-15T07:20:45;10.10;99.90
9151;DHT22;4610;50.006;7.490;2022-11-15T07:23:11;10.00;99.90
9151;DHT22;4610;50.006;7.490;2022-11-15T07:25:38;10.00;99.90
9151;DHT22;4610;50.006;7.490;2022-11-15T07:28:06;10.00;99.90
9151;DHT22;4610;50.006;7.490;2022-11-15T07:30:33;9.70;99.90
9151;DHT22;4610;50.006;7.490;2022-11-15T07:33:00;9.90;99.90
9151;DHT22;4610;50.006;7.490;2022-11-15T07:35:28;9.80;99.90
9151;DHT22;4610;50.006;7.490;2022-11-15T07:37:56;9.70;99.90
9151;DHT22;4610;50.006;7.490;2022-11-15T07:40:24;10.20;99.90
9151;DHT22;4610;50.006;7.490;2022-11-15T07:42:50;10.00;99.90
9151;DHT22;4610;50.006;7.490;2022-11-15T07:45:23;10.20;99.90
9151;DHT22;4610;50.006;7.490;2022-11-15T07:47:51;10.20;99.90
9151;DHT22;4610;50.006;7.490;2022-11-15T07:50:18;10.20;99.90
9151;DHT22;4610;50.006;7.490;2022-11-15T07:52:45;10.40;99.90
9151;DHT22;4610;50.006;7.490;2022-11-15T07:55:12;10.60;99.90
9151;DHT22;4610;50.006;7.490;2022-11-15T07:57:38;11.00;99.90
9151;DHT22;4610;50.006;7.490;2022-11-15T08:00:06;11.20;99.90
9151;DHT22;4610;50.006;7.490;2022-11-15T08:02:35;11.60;99.90
9151;DHT22;4610;50.006;7.490;2022-11-15T08:05:02;11.80;99.90
9151;DHT22;4610;50.006;7.490;2022-11-15T08:07:29;12.00;99.90
9151;DHT22;4610;50.006;7.490;2022-11-15T08:09:57;12.20;99.90
9151;DHT22;4610;50.006;7.490;2022-11-15T08:12:23;12.70;99.90
9151;DHT22;4610;50.006;7.490;2022-11-15T08:14:50;13.20;99.90
9151;DHT22;4610;50.006;7.490;2022-11-15T08:17:17;13.00;99.90
9151;DHT22;4610;50.006;7.490;2022-11-15T08:19:45;12.80;99.90
9151;DHT22;4610;50.006;7.490;2022-11-15T08:22:12;12.50;99.90
9151;DHT22;4610;50.006;7.490;2022-11-15T08:24:39;12.20;99.90
9151;DHT22;4610;50.006;7.490;2022-11-15T08:27:06;12.00;99.90
9151;DHT22;4610;50.006;7.490;2022-11-15T08:29:41;11.80;99.90
9151;DHT22;4610;50.006;7.490;2022-11-15T08:32:08;11.60;99.90
9151;DHT22;4610;50.006;7.490;2022-11-15T08:34:35;11.40;99.90
9151;DHT22;4610;50.006;7.490;2022-11-15T08:37:03;11.30;99.90
9151;DHT22;4610;50.006;7.490;2022-11-15T08:39:30;11.20;99.90
9151;DHT22;4610;50.006;7.490;2022-11-15T08:41:57;11.00;99.90
9151;DHT22;4610;50.006;7.490;2022-11-15T08:44:24;11.00;99.90
9151;DHT22;4610;50.006;7.490;2022-11-15T08:46:50;11.00;99.90
9151;DHT22;4610;50.006;7.490;2022-11-15T08:49:17;10.90;99.90
9151;DHT22;4610;50.006;7.490;2022-11-15T08:51:44;10.90;99.90
9151;DHT22;4610;50.006;7.490;2022-11-15T08:54:12;10.80;99.90
9151;DHT22;4610;50.006;7.490;2022-11-15T08:56:39;10.80;99.90
9151;DHT22;4610;50.006;7.490;2022-11-15T08:59:06;10.80;99.90
9151;DHT22;4610;50.006;7.490;2022-11-15T09:01:33;10.80;99.90
9151;DHT22;4610;50.006;7.490;2022-11-15T09:03:59;10.80;99.90
9151;DHT22;4610;50.006;7.490;2022-11-15T09:06:26;10.70;99.90
9151;DHT22;4610;50.006;7.490;2022-11-15T09:08:53;10.80;99.90
9151;DHT22;4610;50.006;7.490;2022-11-15T09:11:21;10.80;99.90
9151;DHT22;4610;50.006;7.490;2022-11-15T09:13:48;10.90;99.90
9151;DHT22;4610;50.006;7.490;2022-11-15T09:16:15;10.90;99.90
9151;DHT22;4610;50.006;7.490;2022-11-15T09:18:42;10.90;99.90
9151;DHT22;4610;50.006;7.490;2022-11-15T09:21:09;10.90;99.90
9151;DHT22;4610;50.006;7.490;2022-11-15T09:23:36;10.90;99.90
9151;DHT22;4610;50.006;7.490;2022-11-15T09:26:04;11.00;99.90
9151;DHT22;4610;50.006;7.490;2022-11-15T09:28:33;10.90;99.90
9151;DHT22;4610;50.006;7.490;2022-11-15T09:31:02;10.90;99.90
9151;DHT22;4610;50.006;7.490;2022-11-15T09:33:29;11.00;99.90
9151;DHT22;4610;50.006;7.490;2022-11-15T09:36:00;11.00;99.90
9151;DHT22;4610;50.006;7.490;2022-11-15T09:38:27;11.00;99.90
9151;DHT22;4610;50.006;7.490;2022-11-15T09:41:13;11.00;99.90
9151;DHT22;4610;50.006;7.490;2022-11-15T09:43:48;11.00;99.90
9151;DHT22;4610;50.006;7.490;2022-11-15T09:46:24;11.10;99.90
9151;DHT22;4610;50.006;7.490;2022-11-15T09:48:55;11.10;99.90
9151;DHT22;4610;50.006;7.490;2022-11-15T09:51:29;11.10;99.90
9151;DHT22;4610;50.006;7.490;2022-11-15T09:54:01;11.10;99.90
9151;DHT22;4610;50.006;7.490;2022-11-15T09:56:30;11.10;99.90
9151;DHT22;4610;50.006;7.490;2022-11-15T09:59:12;11.20;99.90
9151;DHT22;4610;50.006;7.490;2022-11-15T10:01:44;11.20;99.90
9151;DHT22;4610;50.006;7.490;2022-11-15T10:04:14;11.30;99.90
9151;DHT22;4610;50.006;7.490;2022-11-15T10:06:52;11.30;99.90
9151;DHT22;4610;50.006;7.490;2022-11-15T10:09:25;11.30;99.90
9151;DHT22;4610;50.006;7.490;2022-11-15T10:11:55;11.30;99.90
9151;DHT22;4610;50.006;7.490;2022-11-15T10:14:28;11.40;99.90
9151;DHT22;4610;50.006;7.490;2022-11-15T10:17:21;11.50;99.90
9151;DHT22;4610;50.006;7.490;2022-11-15T10:19:58;11.60;99.90
9151;DHT22;4610;50.006;7.490;2022-11-15T10:22:28;11.90;99.90
9151;DHT22;4610;50.006;7.490;2022-11-15T10:25:15;12.00;99.90
9151;DHT22;4610;50.006;7.490;2022-11-15T10:27:45;12.20;99.90
9151;DHT22;4610;50.006;7.490;2022-11-15T10:30:17;12.20;99.90
9151;DHT22;4610;50.006;7.490;2022-11-15T10:32:45;12.10;99.90
9151;DHT22;4610;50.006;7.490;2022-11-15T10:35:18;12.10;99.90
9151;DHT22;4610;50.006;7.490;2022-11-15T10:37:45;12.30;99.90
9151;DHT22;4610;50.006;7.490;2022-11-15T10:40:17;12.30;99.90
9151;DHT22;4610;50.006;7.490;2022-11-15T10:42:45;12.30;99.90
9151;DHT22;4610;50.006;7.490;2022-11-15T10:45:28;11.60;99.90
9151;DHT22;4610;50.006;7.490;2022-11-15T10:48:23;12.40;99.90
9151;DHT22;4610;50.006;7.490;2022-11-15T10:50:51;12.50;99.90
9151;DHT22;4610;50.006;7.490;2022-11-15T10:53:26;12.40;99.90
9151;DHT22;4610;50.006;7.490;2022-11-15T10:55:56;12.30;99.90
9151;DHT22;4610;50.006;7.490;2022-11-15T10:58:32;12.30;99.90
9151;DHT22;4610;50.006;7.490;2022-11-15T11:01:11;12.40;99.90
9151;DHT22;4610;50.006;7.490;2022-11-15T11:03:39;12.60;99.90
9151;DHT22;4610;50.006;7.490;2022-11-15T11:06:10;12.70;99.90
9151;DHT22;4610;50.006;7.490;2022-11-15T11:08:37;12.80;99.90
9151;DHT22;4610;50.006;7.490;2022-11-15T11:11:05;12.80;99.90
9151;DHT22;4610;50.006;7.490;2022-11-15T11:13:34;12.90;99.90
9151;DHT22;4610;50.006;7.490;2022-11-15T11:16:21;12.90;99.90
9151;DHT22;4610;50.006;7.490;2022-11-15T11:18:59;12.80;99.90
9151;DHT22;4610;50.006;7.490;2022-11-15T11:21:41;12.60;99.90
9151;DHT22;4610;50.006;7.490;2022-11-15T11:24:18;12.60;99.90
9151;DHT22;4610;50.006;7.490;2022-11-15T11:27:02;12.50;99.90
9151;DHT22;4610;50.006;7.490;2022-11-15T11:29:45;12.50;99.90
9151;DHT22;4610;50.006;7.490;2022-11-15T11:32:34;12.50;99.90
9151;DHT22;4610;50.006;7.490;2022-11-15T11:35:11;12.60;99.90
9151;DHT22;4610;50.006;7.490;2022-11-15T11:37:45;12.70;99.90
9151;DHT22;4610;50.006;7.490;2022-11-15T11:40:22;12.70;99.90
9151;DHT22;4610;50.006;7.490;2022-11-15T11:42:55;12.70;99.90
9151;DHT22;4610;50.006;7.490;2022-11-15T11:45:47;12.70;99.90
9151;DHT22;4610;50.006;7.490;2022-11-15T11:48:33;12.80;99.90
9151;DHT22;4610;50.006;7.490;2022-11-15T11:51:11;12.80;99.90
9151;DHT22;4610;50.006;7.490;2022-11-15T11:53:42;12.80;99.90
9151;DHT22;4610;50.006;7.490;2022-11-15T11:56:17;12.80;99.90
9151;DHT22;4610;50.006;7.490;2022-11-15T11:58:46;12.80;99.90
9151;DHT22;4610;50.006;7.490;2022-11-15T12:01:17;12.70;99.90
9151;DHT22;4610;50.006;7.490;2022-11-15T12:03:53;12.80;99.90
9151;DHT22;4610;50.006;7.490;2022-11-15T12:06:27;12.80;99.90
9151;DHT22;4610;50.006;7.490;2022-11-15T12:08:59;12.80;99.90
9151;DHT22;4610;50.006;7.490;2022-11-15T12:11:32;12.80;99.90
9151;DHT22;4610;50.006;7.490;2022-11-15T12:14:10;12.80;99.90
9151;DHT22;4610;50.006;7.490;2022-11-15T12:16:38;12.90;99.90
9151;DHT22;4610;50.006;7.490;2022-11-15T12:19:08;12.90;99.90
9151;DHT22;4610;50.006;7.490;2022-11-15T12:21:41;12.90;99.90
9151;DHT22;4610;50.006;7.490;2022-11-15T12:24:15;12.90;99.90
9151;DHT22;4610;50.006;7.490;2022-11-15T12:26:47;12.90;99.90
9151;DHT22;4610;50.006;7.490;2022-11-15T12:29:19;13.00;99.90
9151;DHT22;4610;50.006;7.490;2022-11-15T12:31:49;13.00;99.90
9151;DHT22;4610;50.006;7.490;2022-11-15T12:34:36;13.00;99.90
9151;DHT22;4610;50.006;7.490;2022-11-15T12:37:32;13.00;99.90
9151;DHT22;4610;50.006;7.490;2022-11-15T12:40:24;13.00;99.90
9151;DHT22;4610;50.006;7.490;2022-11-15T12:43:00;13.10;99.90
9151;DHT22;4610;50.006;7.490;2022-11-15T12:45:29;13.20;99.90
9151;DHT22;4610;50.006;7.490;2022-11-15T12:50:55;13.20;99.90
9151;DHT22;4610;50.006;7.490;2022-11-15T12:53:27;13.20;99.90
9151;DHT22;4610;50.006;7.490;2022-11-15T12:56:21;13.20;99.90
9151;DHT22;4610;50.006;7.490;2022-11-15T12:58:54;13.20;99.90
9151;DHT22;4610;50.006;7.490;2022-11-15T13:01:56;13.20;99.90
9151;DHT22;4610;50.006;7.490;2022-11-15T13:04:26;13.20;99.90
9151;DHT22;4610;50.006;7.490;2022-11-15T13:06:56;13.20;99.90
9151;DHT22;4610;50.006;7.490;2022-11-15T13:09:52;13.20;99.90
9151;DHT22;4610;50.006;7.490;2022-11-15T13:12:49;13.10;99.90
9151;DHT22;4610;50.006;7.490;2022-11-15T13:15:44;13.10;99.90
9151;DHT22;4610;50.006;7.490;2022-11-15T13:18:36;13.10;99.90
9151;DHT22;4610;50.006;7.490;2022-11-15T13:21:05;13.00;99.90
9151;DHT22;4610;50.006;7.490;2022-11-15T13:23:59;13.00;99.90
9151;DHT22;4610;50.006;7.490;2022-11-15T13:26:26;13.00;99.90
9151;DHT22;4610;50.006;7.490;2022-11-15T13:28:53;13.90;99.90
9151;DHT22;4610;50.006;7.490;2022-11-15T13:31:30;12.90;99.90
9151;DHT22;4610;50.006;7.490;2022-11-15T13:34:03;12.80;99.90
9151;DHT22;4610;50.006;7.490;2022-11-15T13:36:32;12.90;99.90
9151;DHT22;4610;50.006;7.490;2022-11-15T13:39:04;12.90;99.90
9151;DHT22;4610;50.006;7.490;2022-11-15T13:41:32;12.90;99.90
9151;DHT22;4610;50.006;7.490;2022-11-15T13:44:00;12.90;99.90
9151;DHT22;4610;50.006;7.490;2022-11-15T13:46:28;12.80;99.90
9151;DHT22;4610;50.006;7.490;2022-11-15T13:48:58;12.80;99.90
9151;DHT22;4610;50.006;7.490;2022-11-15T13:51:33;12.90;99.90
9151;DHT22;4610;50.006;7.490;2022-11-15T13:54:09;12.90;99.90
9151;DHT22;4610;50.006;7.490;2022-11-15T13:56:41;12.90;99.90
9151;DHT22;4610;50.006;7.490;2022-11-15T13:59:09;12.80;99.90
9151;DHT22;4610;50.006;7.490;2022-11-15T14:01:37;12.80;99.90
9151;DHT22;4610;50.006;7.490;2022-11-15T14:04:04;12.80;99.90
9151;DHT22;4610;50.006;7.490;2022-11-15T14:06:31;12.80;99.90
9151;DHT22;4610;50.006;7.490;2022-11-15T14:11:53;12.70;99.90
9151;DHT22;4610;50.006;7.490;2022-11-15T14:14:22;12.60;99.90
9151;DHT22;4610;50.006;7.490;2022-11-15T14:16:51;12.60;99.90
9151;DHT22;4610;50.006;7.490;2022-11-15T14:19:37;12.60;99.90
9151;DHT22;4610;50.006;7.490;2022-11-15T14:22:19;12.60;99.90
9151;DHT22;4610;50.006;7.490;2022-11-15T14:25:06;12.70;99.90
9151;DHT22;4610;50.006;7.490;2022-11-15T14:27:33;12.70;99.90
9151;DHT22;4610;50.006;7.490;2022-11-15T14:30:01;12.80;99.90
9151;DHT22;4610;50.006;7.490;2022-11-15T14:32:29;12.80;99.90
9151;DHT22;4610;50.006;7.490;2022-11-15T14:34:58;12.80;99.90
9151;DHT22;4610;50.006;7.490;2022-11-15T14:37:27;12.90;99.90
9151;DHT22;4610;50.006;7.490;2022-11-15T14:39:55;12.90;99.90
9151;DHT22;4610;50.006;7.490;2022-11-15T14:42:23;12.90;99.90
9151;DHT22;4610;50.006;7.490;2022-11-15T14:44:50;12.90;99.90
9151;DHT22;4610;50.006;7.490;2022-11-15T14:47:18;12.80;99.90
9151;DHT22;4610;50.006;7.490;2022-11-15T14:49:45;12.80;99.90
9151;DHT22;4610;50.006;7.490;2022-11-15T14:52:24;12.70;99.90
9151;DHT22;4610;50.006;7.490;2022-11-15T14:54:54;12.60;99.90
9151;DHT22;4610;50.006;7.490;2022-11-15T14:57:21;12.60;99.90
9151;DHT22;4610;50.006;7.490;2022-11-15T14:59:48;12.50;99.90
9151;DHT22;4610;50.006;7.490;2022-11-15T15:02:17;12.40;99.90
9151;DHT22;4610;50.006;7.490;2022-11-15T15:04:45;12.30;99.90
9151;DHT22;4610;50.006;7.490;2022-11-15T15:07:12;10.50;99.90
9151;DHT22;4610;50.006;7.490;2022-11-15T15:09:39;12.30;99.90
9151;DHT22;4610;50.006;7.490;2022-11-15T15:12:14;12.20;99.90
9151;DHT22;4610;50.006;7.490;2022-11-15T15:14:42;12.20;99.90
9151;DHT22;4610;50.006;7.490;2022-11-15T15:17:08;12.10;99.90
9151;DHT22;4610;50.006;7.490;2022-11-15T15:19:35;12.00;99.90
9151;DHT22;4610;50.006;7.490;2022-11-15T15:22:02;12.00;99.90
9151;DHT22;4610;50.006;7.490;2022-11-15T15:24:29;12.00;99.90
9151;DHT22;4610;50.006;7.490;2022-11-15T15:26:56;12.00;99.90
9151;DHT22;4610;50.006;7.490;2022-11-15T15:29:24;12.00;99.90
9151;DHT22;4610;50.006;7.490;2022-11-15T15:31:51;11.90;99.90
9151;DHT22;4610;50.006;7.490;2022-11-15T15:34:18;11.90;99.90
9151;DHT22;4610;50.006;7.490;2022-11-15T15:40:28;11.80;99.90
9151;DHT22;4610;50.006;7.490;2022-11-15T15:42:55;11.70;99.90
9151;DHT22;4610;50.006;7.490;2022-11-15T15:45:25;11.70;99.90
9151;DHT22;4610;50.006;7.490;2022-11-15T15:47:52;11.60;99.90
9151;DHT22;4610;50.006;7.490;2022-11-15T15:50:24;11.50;99.90
9151;DHT22;4610;50.006;7.490;2022-11-15T15:52:52;11.50;99.90
9151;DHT22;4610;50.006;7.490;2022-11-15T15:55:20;11.50;99.90
9151;DHT22;4610;50.006;7.490;2022-11-15T15:57:47;11.50;99.90
9151;DHT22;4610;50.006;7.490;2022-11-15T16:00:15;11.50;99.90
9151;DHT22;4610;50.006;7.490;2022-11-15T16:02:43;11.70;99.90
9151;DHT22;4610;50.006;7.490;2022-11-15T16:05:10;11.60;99.90
9151;DHT22;4610;50.006;7.490;2022-11-15T16:07:38;11.60;99.90
9151;DHT22;4610;50.006;7.490;2022-11-15T16:10:17;11.50;99.90
9151;DHT22;4610;50.006;7.490;2022-11-15T16:12:44;11.50;99.90
9151;DHT22;4610;50.006;7.490;2022-11-15T16:15:11;11.40;99.90
9151;DHT22;4610;50.006;7.490;2022-11-15T16:17:40;11.40;99.90
9151;DHT22;4610;50.006;7.490;2022-11-15T16:20:20;11.40;99.90
9151;DHT22;4610;50.006;7.490;2022-11-15T16:22:48;11.40;99.90
9151;DHT22;4610;50.006;7.490;2022-11-15T16:25:15;9.50;99.90
9151;DHT22;4610;50.006;7.490;2022-11-15T16:27:42;11.60;99.90
9151;DHT22;4610;50.006;7.490;2022-11-15T16:30:13;11.30;99.90
9151;DHT22;4610;50.006;7.490;2022-11-15T16:32:40;11.30;99.90
9151;DHT22;4610;50.006;7.490;2022-11-15T16:35:11;11.30;99.90
9151;DHT22;4610;50.006;7.490;2022-11-15T16:37:38;11.30;99.90
9151;DHT22;4610;50.006;7.490;2022-11-15T16:40:15;11.30;99.90
9151;DHT22;4610;50.006;7.490;2022-11-15T16:42:44;11.20;99.90